Time,TemperatureF,DewpointF,PressureIn,WindDirection,WindDirectionDegrees,WindSpeedMPH,WindSpeedGustMPH,Humidity,HourlyPrecipIn,Conditions,Clouds,dailyrainin,SoftwareType,DateUTC
2013-06-22 00:00:00,43.8,41.1,30.17,SE,134,0.0,0.0,90,0.00,,,0.00,Wunderground v.1.13,2013-06-22 04:00:00,
2013-06-22 00:10:00,43.5,41.0,30.17,SE,134,0.0,0.0,91,0.00,,,0.00,Wunderground v.1.13,2013-06-22 04:10:00,
2013-06-22 00:20:00,43.2,40.8,30.17,SE,134,0.0,0.0,91,0.00,,,0.00,Wunderground v.1.13,2013-06-22 04:20:00,
2013-06-22 00:30:00,42.7,40.5,30.17,SE,134,0.0,0.0,92,0.00,,,0.00,Wunderground v.1.13,2013-06-22 04:30:00,
2013-06-22 00:40:00,42.4,40.2,30.17,SE,134,0.0,0.0,92,0.00,,,0.00,Wunderground v.1.13,2013-06-22 04:40:00,
2013-06-22 00:50:00,42.2,40.0,30.16,SE,134,0.0,0.0,92,0.00,,,0.00,Wunderground v.1.13,2013-06-22 04:50:00,
2013-06-22 01:00:00,42.0,40.1,30.16,SE,134,0.0,0.0,93,0.00,,,0.00,Wunderground v.1.13,2013-06-22 05:00:00,
2013-06-22 01:10:00,41.8,39.9,30.16,SE,134,0.0,0.0,93,0.00,,,0.00,Wunderground v.1.13,2013-06-22 05:10:00,
2013-06-22 01:20:00,41.7,40.1,30.16,SE,134,0.0,0.0,94,0.00,,,0.00,Wunderground v.1.13,2013-06-22 05:20:00,
2013-06-22 01:30:00,41.6,40.0,30.17,SE,134,0.0,0.0,94,0.00,,,0.00,Wunderground v.1.13,2013-06-22 05:30:00,
2013-06-22 01:40:00,41.5,39.9,30.17,SE,134,0.0,0.0,94,0.00,,,0.00,Wunderground v.1.13,2013-06-22 05:40:00,
2013-06-22 01:50:00,41.3,39.7,30.17,SE,134,0.0,0.0,94,0.00,,,0.00,Wunderground v.1.13,2013-06-22 05:50:00,
2013-06-22 02:00:00,41.0,39.7,30.17,SE,134,0.0,0.0,95,0.00,,,0.00,Wunderground v.1.13,2013-06-22 06:00:00,
2013-06-22 02:10:00,40.8,39.5,30.17,SE,134,0.0,0.0,95,0.00,,,0.00,Wunderground v.1.13,2013-06-22 06:10:00,
2013-06-22 02:20:00,40.6,39.3,30.16,SE,138,0.0,0.0,95,0.00,,,0.00,Wunderground v.1.13,2013-06-22 06:20:00,
2013-06-22 02:30:00,40.4,39.1,30.17,SE,138,0.0,0.0,95,0.00,,,0.00,Wunderground v.1.13,2013-06-22 06:30:00,
2013-06-22 02:40:00,40.1,38.8,30.17,SE,138,0.0,0.0,95,0.00,,,0.00,Wunderground v.1.13,2013-06-22 06:40:00,
2013-06-22 02:50:00,39.9,38.9,30.16,SE,138,0.0,0.0,96,0.00,,,0.00,Wunderground v.1.13,2013-06-22 06:50:00,
2013-06-22 03:00:00,39.6,38.3,30.17,SE,138,0.0,0.0,95,0.00,,,0.00,Wunderground v.1.13,2013-06-22 07:00:00,
2013-06-22 03:20:00,39.1,38.1,30.17,SE,138,0.0,0.0,96,0.00,,,0.00,Wunderground v.1.13,2013-06-22 07:20:00,
2013-06-22 03:30:00,38.9,37.9,30.17,SE,138,0.0,0.0,96,0.00,,,0.00,Wunderground v.1.13,2013-06-22 07:30:00,
2013-06-22 03:40:00,38.7,37.7,30.17,SE,138,0.0,0.0,96,0.00,,,0.00,Wunderground v.1.13,2013-06-22 07:40:00,
2013-06-22 03:50:00,38.6,37.6,30.17,SE,138,0.0,0.0,96,0.00,,,0.00,Wunderground v.1.13,2013-06-22 07:50:00,
2013-06-22 04:00:00,38.5,37.5,30.17,SE,138,0.0,0.0,96,0.00,,,0.00,Wunderground v.1.13,2013-06-22 08:00:00,
2013-06-22 04:10:00,38.3,37.3,30.17,SE,138,0.0,0.0,96,0.00,,,0.00,Wunderground v.1.13,2013-06-22 08:10:00,
2013-06-22 04:20:00,38.2,37.4,30.17,SE,138,0.0,0.0,97,0.00,,,0.00,Wunderground v.1.13,2013-06-22 08:20:00,
2013-06-22 04:30:00,38.1,37.3,30.17,SE,138,0.0,0.0,97,0.00,,,0.00,Wunderground v.1.13,2013-06-22 08:30:00,
2013-06-22 04:40:00,37.9,37.1,30.17,SE,138,0.0,0.0,97,0.00,,,0.00,Wunderground v.1.13,2013-06-22 08:40:00,
2013-06-22 04:50:00,37.9,37.1,30.17,SE,138,0.0,0.0,97,0.00,,,0.00,Wunderground v.1.13,2013-06-22 08:50:00,
2013-06-22 05:00:00,37.7,36.9,30.17,SE,138,0.0,0.0,97,0.00,,,0.00,Wunderground v.1.13,2013-06-22 09:00:00,
2013-06-22 05:10:00,37.8,37.0,30.17,SE,138,0.0,0.0,97,0.00,,,0.00,Wunderground v.1.13,2013-06-22 09:10:00,
2013-06-22 05:20:00,38.0,37.5,30.17,SE,138,0.0,0.0,98,0.00,,,0.00,Wunderground v.1.13,2013-06-22 09:20:00,
2013-06-22 05:30:00,38.2,37.7,30.17,SE,138,0.0,0.0,98,0.00,,,0.00,Wunderground v.1.13,2013-06-22 09:30:00,
2013-06-22 05:40:00,38.8,38.3,30.17,SE,138,0.0,0.0,98,0.00,,,0.00,Wunderground v.1.13,2013-06-22 09:40:00,
2013-06-22 05:50:00,39.5,39.2,30.17,SE,138,0.0,0.0,99,0.00,,,0.00,Wunderground v.1.13,2013-06-22 09:50:00,
2013-06-22 06:00:00,40.4,40.1,30.17,SE,138,0.0,0.0,99,0.00,,,0.00,Wunderground v.1.13,2013-06-22 10:00:00,
2013-06-22 06:10:00,41.2,40.9,30.17,SE,138,0.0,0.0,99,0.00,,,0.00,Wunderground v.1.13,2013-06-22 10:10:00,
2013-06-22 06:20:00,42.1,41.8,30.17,SE,138,0.0,0.0,99,0.00,,,0.00,Wunderground v.1.13,2013-06-22 10:20:00,
2013-06-22 06:30:00,42.6,42.3,30.17,SE,138,0.0,0.0,99,0.00,,,0.00,Wunderground v.1.13,2013-06-22 10:30:00,
2013-06-22 06:40:00,43.3,43.0,30.17,SE,138,0.0,0.0,99,0.00,,,0.00,Wunderground v.1.13,2013-06-22 10:40:00,
2013-06-22 06:50:00,44.0,42.9,30.17,SE,138,0.0,0.0,96,0.00,,,0.00,Wunderground v.1.13,2013-06-22 10:50:00,
2013-06-22 07:00:00,44.7,43.1,30.17,SE,138,0.0,0.0,94,0.00,,,0.00,Wunderground v.1.13,2013-06-22 11:00:00,
2013-06-22 07:10:00,45.1,43.5,30.16,SE,138,0.0,0.0,94,0.00,,,0.00,Wunderground v.1.13,2013-06-22 11:10:00,
2013-06-22 07:20:00,45.8,43.9,30.16,SE,138,0.0,0.0,93,0.00,,,0.00,Wunderground v.1.13,2013-06-22 11:20:00,
2013-06-22 07:30:00,46.3,43.8,30.16,SE,138,0.0,0.0,91,0.00,,,0.00,Wunderground v.1.13,2013-06-22 11:30:00,
2013-06-22 07:40:00,46.9,44.4,30.16,SSE,148,0.0,2.0,91,0.00,,,0.00,Wunderground v.1.13,2013-06-22 11:40:00,
2013-06-22 07:50:00,47.4,44.3,30.16,SSE,148,0.0,0.0,89,0.00,,,0.00,Wunderground v.1.13,2013-06-22 11:50:00,
2013-06-22 08:00:00,48.0,44.9,30.16,SSE,148,0.0,0.0,89,0.00,,,0.00,Wunderground v.1.13,2013-06-22 12:00:00,
2013-06-22 08:10:00,48.5,45.1,30.16,SSE,148,0.0,1.0,88,0.00,,,0.00,Wunderground v.1.13,2013-06-22 12:10:00,
2013-06-22 08:20:00,48.9,45.8,30.15,SSE,148,0.0,0.0,89,0.00,,,0.00,Wunderground v.1.13,2013-06-22 12:20:00,
2013-06-22 08:30:00,49.3,46.2,30.16,SSE,148,0.0,0.0,89,0.00,,,0.00,Wunderground v.1.13,2013-06-22 12:30:00,
2013-06-22 08:40:00,49.8,46.4,30.15,SSE,151,0.0,0.0,88,0.00,,,0.00,Wunderground v.1.13,2013-06-22 12:40:00,
2013-06-22 08:50:00,50.0,45.7,30.15,SSE,151,0.0,0.0,85,0.00,,,0.00,Wunderground v.1.13,2013-06-22 12:50:00,
2013-06-22 09:00:00,50.6,46.6,30.15,SSE,151,0.0,0.0,86,0.00,,,0.00,Wunderground v.1.13,2013-06-22 13:00:00,
2013-06-22 09:10:00,51.4,47.0,30.14,SSE,151,0.0,0.0,85,0.00,,,0.00,Wunderground v.1.13,2013-06-22 13:10:00,
2013-06-22 09:20:00,52.3,47.6,30.15,SSE,151,0.0,0.0,84,0.00,,,0.00,Wunderground v.1.13,2013-06-22 13:20:00,
2013-06-22 09:30:00,52.6,47.9,30.14,SSE,151,0.0,0.0,84,0.00,,,0.00,Wunderground v.1.13,2013-06-22 13:30:00,
2013-06-22 09:40:00,53.3,48.6,30.14,SSE,151,0.0,1.0,84,0.00,,,0.00,Wunderground v.1.13,2013-06-22 13:40:00,
2013-06-22 09:50:00,53.7,49.0,30.14,SSE,156,1.0,1.0,84,0.00,,,0.00,Wunderground v.1.13,2013-06-22 13:50:00,
2013-06-22 10:00:00,54.2,48.8,30.14,SSE,156,0.0,0.0,82,0.00,,,0.00,Wunderground v.1.13,2013-06-22 14:00:00,
2013-06-22 10:10:00,54.2,48.8,30.14,SSE,156,0.0,0.0,82,0.00,,,0.00,Wunderground v.1.13,2013-06-22 14:10:00,
2013-06-22 10:20:00,53.9,48.5,30.14,SSE,155,1.0,1.0,82,0.00,,,0.00,Wunderground v.1.13,2013-06-22 14:20:00,
2013-06-22 10:30:00,54.1,48.4,30.15,SSE,155,0.0,0.0,81,0.00,,,0.00,Wunderground v.1.13,2013-06-22 14:30:00,
2013-06-22 10:40:00,54.5,49.4,30.14,SSE,155,0.0,0.0,83,0.00,,,0.00,Wunderground v.1.13,2013-06-22 14:40:00,
2013-06-22 10:50:00,55.2,49.5,30.14,SSE,155,0.0,0.0,81,0.00,,,0.00,Wunderground v.1.13,2013-06-22 14:50:00,
2013-06-22 11:30:00,59.5,51.6,30.14,SSE,150,0.0,0.0,75,0.00,,,0.00,Wunderground v.1.13,2013-06-22 15:30:00,
2013-06-22 11:40:00,61.9,52.0,30.13,ENE,60,1.0,3.0,70,0.00,,,0.00,Wunderground v.1.13,2013-06-22 15:40:00,
2013-06-22 11:50:00,64.1,52.5,30.13,NNE,13,1.0,1.0,66,0.00,,,0.00,Wunderground v.1.13,2013-06-22 15:50:00,
2013-06-22 12:00:00,65.8,52.4,30.13,NNW,344,1.0,2.0,62,0.00,,,0.00,Wunderground v.1.13,2013-06-22 16:00:00,
2013-06-22 12:10:00,66.6,54.0,30.13,ESE,112,2.0,3.0,64,0.00,,,0.00,Wunderground v.1.13,2013-06-22 16:10:00,
2013-06-22 12:20:00,66.3,54.2,30.12,NE,53,3.0,6.0,65,0.00,,,0.00,Wunderground v.1.13,2013-06-22 16:20:00,
2013-06-22 12:30:00,66.8,55.1,30.11,NNE,15,2.0,2.0,66,0.00,,,0.00,Wunderground v.1.13,2013-06-22 16:30:00,
2013-06-22 12:40:00,67.6,55.8,30.11,NE,41,2.0,3.0,66,0.00,,,0.00,Wunderground v.1.13,2013-06-22 16:40:00,
2013-06-22 12:50:00,67.2,55.9,30.10,East,101,2.0,2.0,67,0.00,,,0.00,Wunderground v.1.13,2013-06-22 16:50:00,
2013-06-22 13:00:00,68.6,57.6,30.09,NNW,336,3.0,3.0,68,0.00,,,0.00,Wunderground v.1.13,2013-06-22 17:00:00,
2013-06-22 13:10:00,70.9,59.0,30.09,NE,40,3.0,3.0,66,0.00,,,0.00,Wunderground v.1.13,2013-06-22 17:10:00,
2013-06-22 13:20:00,72.2,59.8,30.09,NNE,29,2.0,3.0,65,0.00,,,0.00,Wunderground v.1.13,2013-06-22 17:20:00,
2013-06-22 13:30:00,72.8,60.3,30.09,NNW,329,3.0,3.0,65,0.00,,,0.00,Wunderground v.1.13,2013-06-22 17:30:00,
2013-06-22 13:40:00,74.1,60.7,30.08,NE,44,2.0,2.0,63,0.00,,,0.00,Wunderground v.1.13,2013-06-22 17:40:00,
2013-06-22 13:50:00,74.7,58.9,30.08,NE,34,3.0,3.0,58,0.00,,,0.00,Wunderground v.1.13,2013-06-22 17:50:00,
2013-06-22 14:00:00,75.2,57.9,30.08,ESE,108,3.0,7.0,55,0.00,,,0.00,Wunderground v.1.13,2013-06-22 18:00:00,
2013-06-22 14:10:00,75.4,59.6,30.07,NNE,14,4.0,4.0,58,0.00,,,0.00,Wunderground v.1.13,2013-06-22 18:10:00,
2013-06-22 14:20:00,75.1,58.3,30.07,East,92,4.0,4.0,56,0.00,,,0.00,Wunderground v.1.13,2013-06-22 18:20:00,
2013-06-22 14:30:00,75.9,58.1,30.07,ENE,70,3.0,7.0,54,0.00,,,0.00,Wunderground v.1.13,2013-06-22 18:30:00,
2013-06-22 14:40:00,76.4,57.5,30.06,NNW,332,2.0,2.0,52,0.00,,,0.00,Wunderground v.1.13,2013-06-22 18:40:00,
2013-06-22 14:50:00,77.5,59.0,30.06,East,98,2.0,6.0,53,0.00,,,0.00,Wunderground v.1.13,2013-06-22 18:50:00,
2013-06-22 15:00:00,76.6,58.2,30.05,NNE,30,3.0,5.0,53,0.00,,,0.00,Wunderground v.1.13,2013-06-22 19:00:00,
2013-06-22 15:10:00,77.0,60.1,30.05,NNE,31,2.0,2.0,56,0.00,,,0.00,Wunderground v.1.13,2013-06-22 19:10:00,
2013-06-22 15:20:00,76.7,57.7,30.05,NNE,31,4.0,4.0,52,0.00,,,0.00,Wunderground v.1.13,2013-06-22 19:20:00,
2013-06-22 15:30:00,76.3,57.4,30.04,NE,40,3.0,5.0,52,0.00,,,0.00,Wunderground v.1.13,2013-06-22 19:30:00,
2013-06-22 15:40:00,76.6,59.2,30.04,NE,51,3.0,4.0,55,0.00,,,0.00,Wunderground v.1.13,2013-06-22 19:40:00,
2013-06-22 15:50:00,77.3,59.9,30.04,North,355,2.0,5.0,55,0.00,,,0.00,Wunderground v.1.13,2013-06-22 19:50:00,
2013-06-22 16:00:00,77.3,58.3,30.03,North,360,3.0,5.0,52,0.00,,,0.00,Wunderground v.1.13,2013-06-22 20:00:00,
2013-06-22 16:10:00,77.5,58.5,30.03,NE,44,2.0,5.0,52,0.00,,,0.00,Wunderground v.1.13,2013-06-22 20:10:00,
2013-06-22 16:20:00,77.8,59.3,30.02,ENE,67,2.0,3.0,53,0.00,,,0.00,Wunderground v.1.13,2013-06-22 20:20:00,
2013-06-22 16:30:00,77.7,59.7,30.02,North,9,3.0,4.0,54,0.00,,,0.00,Wunderground v.1.13,2013-06-22 20:30:00,
2013-06-22 16:40:00,77.5,58.5,30.02,NE,37,4.0,4.0,52,0.00,,,0.00,Wunderground v.1.13,2013-06-22 20:40:00,
2013-06-22 16:50:00,77.8,58.8,30.01,NE,44,2.0,2.0,52,0.00,,,0.00,Wunderground v.1.13,2013-06-22 20:50:00,
2013-06-22 17:00:00,78.3,58.7,30.01,ENE,57,2.0,2.0,51,0.00,,,0.00,Wunderground v.1.13,2013-06-22 21:00:00,
2013-06-22 17:10:00,78.2,59.7,30.00,NNE,13,2.0,2.0,53,0.00,,,0.00,Wunderground v.1.13,2013-06-22 21:10:00,
2013-06-22 17:20:00,77.5,58.5,30.00,NE,49,3.0,9.0,52,0.00,,,0.00,Wunderground v.1.13,2013-06-22 21:20:00,
2013-06-22 17:30:00,77.0,58.6,30.00,NNE,13,3.0,3.0,53,0.00,,,0.00,Wunderground v.1.13,2013-06-22 21:30:00,
2013-06-22 17:40:00,77.2,58.2,30.01,NNE,25,2.0,2.0,52,0.00,,,0.00,Wunderground v.1.13,2013-06-22 21:40:00,
2013-06-22 17:50:00,77.3,57.8,30.00,NE,51,3.0,3.0,51,0.00,,,0.00,Wunderground v.1.13,2013-06-22 21:50:00,
2013-06-22 18:00:00,77.1,57.6,30.00,NNE,24,2.0,2.0,51,0.00,,,0.00,Wunderground v.1.13,2013-06-22 22:00:00,
2013-06-22 18:10:00,77.1,58.1,30.01,NE,47,2.0,4.0,52,0.00,,,0.00,Wunderground v.1.13,2013-06-22 22:10:00,
2013-06-22 18:20:00,77.0,58.0,30.01,NNE,19,2.0,2.0,52,0.00,,,0.00,Wunderground v.1.13,2013-06-22 22:20:00,
2013-06-22 18:30:00,76.7,58.3,30.01,ENE,65,2.0,2.0,53,0.00,,,0.00,Wunderground v.1.13,2013-06-22 22:30:00,
2013-06-22 18:40:00,76.3,57.4,30.01,NE,55,4.0,4.0,52,0.00,,,0.00,Wunderground v.1.13,2013-06-22 22:40:00,
2013-06-22 18:50:00,76.2,57.8,30.02,ESE,106,1.0,4.0,53,0.00,,,0.00,Wunderground v.1.13,2013-06-22 22:50:00,
2013-06-22 19:00:00,75.6,58.3,30.02,North,11,2.0,2.0,55,0.00,,,0.00,Wunderground v.1.13,2013-06-22 23:00:00,
2013-06-22 19:10:00,75.3,58.0,30.01,East,88,2.0,3.0,55,0.00,,,0.00,Wunderground v.1.13,2013-06-22 23:10:00,
2013-06-22 19:20:00,74.8,58.1,30.01,ENE,69,2.0,4.0,56,0.00,,,0.00,Wunderground v.1.13,2013-06-22 23:20:00,
2013-06-22 19:30:00,74.5,58.3,30.01,ENE,62,0.0,0.0,57,0.00,,,0.00,Wunderground v.1.13,2013-06-22 23:30:00,
2013-06-22 19:40:00,73.9,58.7,30.01,NNE,17,0.0,0.0,59,0.00,,,0.00,Wunderground v.1.13,2013-06-22 23:40:00,
2013-06-22 19:50:00,72.6,58.4,30.01,NNE,33,1.0,1.0,61,0.00,,,0.00,Wunderground v.1.13,2013-06-22 23:50:00,
2013-06-22 20:00:00,71.5,58.7,30.01,NNE,13,0.0,0.0,64,0.00,,,0.00,Wunderground v.1.13,2013-06-23 00:00:00,
2013-06-22 20:10:00,70.6,58.7,30.01,NE,55,0.0,0.0,66,0.00,,,0.00,Wunderground v.1.13,2013-06-23 00:10:00,
2013-06-22 20:20:00,69.4,58.8,30.01,NE,55,0.0,0.0,69,0.00,,,0.00,Wunderground v.1.13,2013-06-23 00:20:00,
2013-06-22 20:30:00,67.6,57.9,30.02,NE,55,0.0,0.0,71,0.00,,,0.00,Wunderground v.1.13,2013-06-23 00:30:00,
2013-06-22 20:40:00,66.3,58.1,30.02,NNW,331,0.0,0.0,75,0.00,,,0.00,Wunderground v.1.13,2013-06-23 00:40:00,
2013-06-22 20:50:00,64.8,57.4,30.03,NNW,334,0.0,0.0,77,0.00,,,0.00,Wunderground v.1.13,2013-06-23 00:50:00,
2013-06-22 21:00:00,64.0,57.4,30.03,NNW,337,0.0,0.0,79,0.00,,,0.00,Wunderground v.1.13,2013-06-23 01:00:00,
2013-06-22 21:10:00,63.6,57.3,30.03,NNW,337,0.0,0.0,80,0.00,,,0.00,Wunderground v.1.13,2013-06-23 01:10:00,
2013-06-22 21:20:00,63.9,57.6,30.03,NNW,336,0.0,0.0,80,0.00,,,0.00,Wunderground v.1.13,2013-06-23 01:20:00,
2013-06-22 21:30:00,63.7,57.4,30.04,NNW,336,0.0,0.0,80,0.00,,,0.00,Wunderground v.1.13,2013-06-23 01:30:00,
2013-06-22 21:40:00,63.0,57.4,30.04,NNW,336,0.0,0.0,82,0.00,,,0.00,Wunderground v.1.13,2013-06-23 01:40:00,
2013-06-22 21:50:00,63.6,58.0,30.04,North,5,0.0,0.0,82,0.00,,,0.00,Wunderground v.1.13,2013-06-23 01:50:00,
2013-06-22 22:00:00,65.3,58.3,30.04,West,271,1.0,3.0,78,0.00,,,0.00,Wunderground v.1.13,2013-06-23 02:00:00,
2013-06-22 22:10:00,66.4,58.6,30.04,NE,49,1.0,1.0,76,0.00,,,0.00,Wunderground v.1.13,2013-06-23 02:10:00,
2013-06-22 22:20:00,66.4,58.6,30.04,NE,53,1.0,1.0,76,0.00,,,0.00,Wunderground v.1.13,2013-06-23 02:20:00,
2013-06-22 22:30:00,65.8,58.4,30.04,NE,49,0.0,0.0,77,0.00,,,0.00,Wunderground v.1.13,2013-06-23 02:30:00,
2013-06-22 22:40:00,65.4,58.4,30.04,NE,36,1.0,2.0,78,0.00,,,0.00,Wunderground v.1.13,2013-06-23 02:40:00,
2013-06-22 22:50:00,64.9,58.2,30.05,North,5,1.0,1.0,79,0.00,,,0.00,Wunderground v.1.13,2013-06-23 02:50:00,
2013-06-22 23:00:00,64.3,58.3,30.05,NW,323,0.0,0.0,81,0.00,,,0.00,Wunderground v.1.13,2013-06-23 03:00:00,
2013-06-22 23:10:00,64.1,58.1,30.05,North,11,1.0,1.0,81,0.00,,,0.00,Wunderground v.1.13,2013-06-23 03:10:00,
2013-06-22 23:20:00,63.8,58.2,30.05,North,355,0.0,0.0,82,0.00,,,0.00,Wunderground v.1.13,2013-06-23 03:20:00,
2013-06-22 23:40:00,63.0,57.8,30.05,North,351,0.0,2.0,83,0.00,,,0.00,Wunderground v.1.13,2013-06-23 03:40:00,
2013-06-22 23:50:00,62.8,57.9,30.05,NNW,332,1.0,1.0,84,0.00,,,0.00,Wunderground v.1.13,2013-06-23 03:50:00,